createdAt,value
2023-01-11T00:01:10.807Z,100370.16
2023-01-11T00:03:38.511Z,100368.16
2023-01-11T00:06:07.927Z,100365.31
2023-01-11T00:08:37.434Z,100367.81
2023-01-11T00:11:05.815Z,100361.34
2023-01-11T00:13:33.406Z,100362.19
2023-01-11T00:16:06.821Z,100353.06
2023-01-11T00:18:34.414Z,100342.34
2023-01-11T00:21:05.513Z,100340.16
2023-01-11T00:23:33.083Z,100333.88
2023-01-11T00:26:03.359Z,100328.78
2023-01-11T00:28:31.144Z,100322.31
2023-01-11T00:30:58.801Z,100310.06
2023-01-11T00:33:26.469Z,100322.94
2023-01-11T00:35:54.156Z,100312.84
2023-01-11T00:38:36.424Z,100324.91
2023-01-11T00:41:25.614Z,100294.81
2023-01-11T00:44:11.125Z,100297.09
2023-01-11T00:46:56.477Z,100297.56
2023-01-11T00:49:24.274Z,100288.63
2023-01-11T00:51:52.052Z,100282.34
2023-01-11T00:54:20.105Z,100289.94
2023-01-11T00:56:49.051Z,100281.81
2023-01-11T00:59:16.691Z,100273.88
2023-01-11T01:01:44.377Z,100281.66
2023-01-11T01:04:12.058Z,100268.41
2023-01-11T01:06:39.637Z,100267.22
2023-01-11T01:09:07.329Z,100267.88
2023-01-11T01:11:34.961Z,100264.41
2023-01-11T01:14:21.210Z,100263.25
2023-01-11T01:16:49.581Z,100251.31
2023-01-11T01:19:17.266Z,100253.59
2023-01-11T01:21:44.895Z,100247.13
2023-01-11T01:24:12.563Z,100236.19
2023-01-11T01:26:42.414Z,100249.25
2023-01-11T01:29:11.761Z,100250.53
2023-01-11T01:31:39.548Z,100214.28
2023-01-11T01:34:08.406Z,100221.06
2023-01-11T01:36:36.047Z,100235.59
2023-01-11T01:39:05.451Z,100225.63
2023-01-11T01:41:33.836Z,100231.38
2023-01-11T01:44:03.285Z,100232.84
2023-01-11T01:46:34.634Z,100237.16
2023-01-11T01:49:07.112Z,100234.16
2023-01-11T01:51:40.063Z,100233.63
2023-01-11T01:54:10.666Z,100241.19
2023-01-11T01:56:43.693Z,100226.94
2023-01-11T01:59:15.534Z,100230.22
2023-01-11T02:01:48.889Z,100223.94
2023-01-11T02:04:23.075Z,100214.63
2023-01-11T02:06:52.096Z,100209.78
2023-01-11T02:09:26.362Z,100204.75
2023-01-11T02:11:56.496Z,100204.41
2023-01-11T02:14:25.074Z,100202.38
2023-01-11T02:16:54.035Z,100200.19
2023-01-11T02:19:38.220Z,100193.06
2023-01-11T02:22:24.979Z,100197.19
2023-01-11T02:25:27.429Z,100188.22
2023-01-11T02:28:06.999Z,100178.47
2023-01-11T02:30:40.135Z,100181.91
2023-01-11T02:33:19.792Z,100182.56
2023-01-11T02:35:58.014Z,100172.78
2023-01-11T02:38:30.355Z,100175.88
2023-01-11T02:41:07.300Z,100182.47
2023-01-11T02:44:05.550Z,100175.34
2023-01-11T02:46:40.387Z,100160.06
2023-01-11T02:49:14.926Z,100166.81
2023-01-11T02:51:48.533Z,100166.44
2023-01-11T02:54:20.520Z,100178.69
2023-01-11T02:56:50.991Z,100158.13
2023-01-11T02:59:23.240Z,100168.56
2023-01-11T03:01:53.048Z,100164.88
2023-01-11T03:04:29.632Z,100165.53
2023-01-11T03:07:14.315Z,100159.03
2023-01-11T03:09:57.212Z,100149.06
2023-01-11T03:12:51.097Z,100146.22
2023-01-11T03:15:34.853Z,100128.31
2023-01-11T03:18:16.056Z,100127.09
2023-01-11T03:20:49.980Z,100126.72
2023-01-11T03:23:22.773Z,100148.59
2023-01-11T03:26:01.346Z,100123.53
2023-01-11T03:28:38.448Z,100150.47
2023-01-11T03:31:16.135Z,100118.66
2023-01-11T03:33:51.816Z,100120.28
2023-01-11T03:36:22.856Z,100157.88
2023-01-11T03:38:57.026Z,100143.41
2023-01-11T03:41:27.972Z,100153.84
2023-01-11T03:43:58.060Z,100123.25
2023-01-11T03:46:31.234Z,100136.34
2023-01-11T03:49:03.895Z,100136.97
2023-01-11T03:51:39.466Z,100117.19
2023-01-11T03:54:09.891Z,100135.38
2023-01-11T03:56:42.135Z,100142.97
2023-01-11T03:59:09.828Z,100147.28
2023-01-11T04:01:39.035Z,100140.97
2023-01-11T04:04:06.855Z,100150.16
2023-01-11T04:06:37.982Z,100133.69
2023-01-11T04:09:06.472Z,100122.88
2023-01-11T04:11:34.055Z,100135.97
2023-01-11T04:14:01.879Z,100136.00
2023-01-11T04:16:29.679Z,100138.47
2023-01-11T04:18:58.734Z,100141.56
2023-01-11T04:21:26.355Z,100146.50
2023-01-11T04:23:53.916Z,100151.41
2023-01-11T04:26:21.571Z,100149.22
2023-01-11T04:28:49.183Z,100151.66
2023-01-11T04:31:16.842Z,100152.09
2023-01-11T04:33:44.459Z,100153.75
2023-01-11T04:36:13.431Z,100160.28
2023-01-11T04:38:41.067Z,100159.09
2023-01-11T04:41:26.445Z,100171.97
2023-01-11T04:43:55.702Z,100158.13
2023-01-11T04:46:23.537Z,100156.94
2023-01-11T04:48:51.249Z,100161.84
2023-01-11T04:51:20.345Z,100156.97
2023-01-11T04:53:49.165Z,100167.22
2023-01-11T04:56:17.956Z,100164.34
2023-01-11T04:58:46.315Z,100160.31
2023-01-11T05:01:17.442Z,100176.69
2023-01-11T05:03:45.506Z,100170.16
2023-01-11T05:06:14.309Z,100169.56
2023-01-11T05:08:46.351Z,100168.16
2023-01-11T05:11:13.992Z,100179.84
2023-01-11T05:13:45.138Z,100182.56
2023-01-11T05:16:14.556Z,100181.34
2023-01-11T05:18:43.026Z,100187.28
2023-01-11T05:21:12.822Z,100183.44
2023-01-11T05:23:41.300Z,100182.22
2023-01-11T05:26:12.538Z,100189.59
2023-01-11T05:28:40.419Z,100178.13
2023-01-11T05:31:08.602Z,100192.69
2023-01-11T05:33:36.275Z,100198.63
2023-01-11T05:36:06.560Z,100197.41
2023-01-11T05:38:34.767Z,100191.06
2023-01-11T05:41:03.646Z,100201.53
2023-01-11T05:43:33.570Z,100209.28
2023-01-11T05:46:01.170Z,100213.38
2023-01-11T05:48:29.434Z,100212.38
2023-01-11T05:50:57.535Z,100208.50
2023-01-11T05:53:25.245Z,100221.41
2023-01-11T05:55:54.595Z,100217.53
2023-01-11T05:58:22.876Z,100215.28
2023-01-11T06:00:52.846Z,100231.88
2023-01-11T06:03:21.436Z,100230.66
2023-01-11T06:05:49.075Z,100237.59
2023-01-11T06:08:16.857Z,100226.16
2023-01-11T06:10:51.275Z,100223.09
2023-01-11T06:13:27.699Z,100233.34
2023-01-11T06:16:00.119Z,100232.34
2023-01-11T06:18:28.236Z,100235.59
2023-01-11T06:20:56.323Z,100230.94
2023-01-11T06:23:24.757Z,100239.69
2023-01-11T06:25:52.668Z,100245.03
2023-01-11T06:28:20.724Z,100243.19
2023-01-11T06:30:52.779Z,100248.50
2023-01-11T06:33:22.926Z,100255.66
2023-01-11T06:35:50.567Z,100254.47
2023-01-11T06:38:19.453Z,100248.31
2023-01-11T06:40:53.186Z,100256.09
2023-01-11T06:43:20.894Z,100251.81
2023-01-11T06:45:48.543Z,100253.63
2023-01-11T06:48:16.435Z,100253.81
2023-01-11T06:50:48.056Z,100261.81
2023-01-11T06:53:16.125Z,100275.91
2023-01-11T06:55:44.112Z,100268.78
2023-01-11T06:58:11.784Z,100273.09
2023-01-11T07:00:39.765Z,100275.31
2023-01-11T07:03:08.193Z,100282.03
2023-01-11T07:05:36.986Z,100284.69
2023-01-11T07:08:06.551Z,100285.06
2023-01-11T07:10:34.128Z,100289.94
2023-01-11T07:13:01.792Z,100289.94
2023-01-11T07:15:29.377Z,100290.56
2023-01-11T07:17:58.277Z,100289.94
2023-01-11T07:20:26.503Z,100298.91
2023-01-11T07:22:58.389Z,100307.47
2023-01-11T07:25:27.691Z,100298.69
2023-01-11T07:28:00.440Z,100309.31
2023-01-11T07:30:29.640Z,100316.47
2023-01-11T07:32:59.658Z,100319.97
2023-01-11T07:35:29.130Z,100323.41
2023-01-11T07:37:57.184Z,100323.41
2023-01-11T07:40:24.734Z,100317.91
2023-01-11T07:43:14.466Z,100324.44
2023-01-11T07:45:51.791Z,100319.97
2023-01-11T07:48:25.151Z,100321.34
2023-01-11T07:50:53.903Z,100326.44
2023-01-11T07:53:21.728Z,100332.94
2023-01-11T07:55:49.314Z,100334.34
2023-01-11T07:58:18.228Z,100334.72
2023-01-11T08:00:46.185Z,100342.88
2023-01-11T08:03:14.122Z,100348.56
2023-01-11T08:05:41.876Z,100346.31
2023-01-11T08:08:09.619Z,100340.19
2023-01-11T08:10:37.287Z,100356.31
2023-01-11T08:13:22.642Z,100354.88
2023-01-11T08:15:51.575Z,100367.31
2023-01-11T08:18:19.786Z,100373.63
2023-01-11T08:20:47.630Z,100377.94
2023-01-11T08:23:15.283Z,100374.66
2023-01-11T08:25:42.827Z,100376.28
2023-01-11T08:28:12.405Z,100380.44
2023-01-11T08:30:40.052Z,100379.59
2023-01-11T08:33:09.016Z,100375.72
2023-01-11T08:35:40.242Z,100375.53
2023-01-11T08:38:08.631Z,100378.38
2023-01-11T08:40:36.442Z,100390.03
2023-01-11T08:43:04.297Z,100387.94
2023-01-11T08:45:34.098Z,100383.63
2023-01-11T08:48:01.743Z,100390.59
2023-01-11T08:50:30.671Z,100392.22
2023-01-11T08:52:58.435Z,100401.03
2023-01-11T08:55:25.990Z,100407.53
2023-01-11T08:57:53.537Z,100403.06
2023-01-11T09:00:21.438Z,100408.53
2023-01-11T09:02:49.070Z,100401.59
2023-01-11T09:05:18.261Z,100410.56
2023-01-11T09:07:47.467Z,100406.44
2023-01-11T09:10:15.626Z,100411.56
2023-01-11T09:12:43.200Z,100420.34
2023-01-11T09:15:11.709Z,100420.84
2023-01-11T09:17:39.528Z,100423.22
2023-01-11T09:20:08.196Z,100415.41
2023-01-11T09:22:35.770Z,100416.88
2023-01-11T09:25:06.704Z,100430.91
2023-01-11T09:27:34.505Z,100423.31
2023-01-11T09:30:02.637Z,100429.81
2023-01-11T09:32:30.298Z,100435.78
2023-01-11T09:34:59.782Z,100434.31
2023-01-11T09:37:27.451Z,100432.69
2023-01-11T09:39:55.205Z,100431.22
2023-01-11T09:42:37.475Z,100431.41
2023-01-11T09:45:13.627Z,100427.50
2023-01-11T09:47:45.865Z,100427.03
2023-01-11T09:50:19.764Z,100418.25
2023-01-11T09:52:52.584Z,100423.72
2023-01-11T09:55:26.884Z,100425.00
2023-01-11T09:58:08.254Z,100433.19
2023-01-11T10:00:47.982Z,100430.31
2023-01-11T10:03:54.292Z,100433.88
2023-01-11T10:06:28.518Z,100441.28
2023-01-11T10:18:25.908Z,100450.97
2023-01-11T10:18:31.017Z,100444.69
2023-01-11T10:21:12.144Z,100452.28
2023-01-11T10:23:49.570Z,100456.38
2023-01-11T10:26:27.252Z,100452.09
2023-01-11T10:29:21.995Z,100447.41
2023-01-11T10:32:13.521Z,100450.88
2023-01-11T10:34:59.968Z,100457.22
2023-01-11T10:37:54.416Z,100460.69
2023-01-11T10:40:58.679Z,100464.88
2023-01-11T10:43:29.263Z,100469.34
2023-01-11T10:45:59.115Z,100474.50
2023-01-11T10:48:33.433Z,100456.06
2023-01-11T10:51:10.997Z,100453.41
2023-01-11T10:53:43.797Z,100449.75
2023-01-11T10:56:22.465Z,100450.19
2023-01-11T10:59:08.042Z,100449.38
2023-01-11T11:01:51.067Z,100447.53
2023-01-11T11:04:31.153Z,100449.53
2023-01-11T11:07:06.467Z,100448.94
2023-01-11T11:09:41.247Z,100452.03
2023-01-11T11:12:13.575Z,100451.00
2023-01-11T11:14:48.029Z,100450.19
2023-01-11T11:17:22.719Z,100450.00
2023-01-11T11:19:52.554Z,100451.81
2023-01-11T11:22:20.919Z,100448.16
2023-01-11T11:24:53.372Z,100454.09
2023-01-11T11:27:27.878Z,100449.44
2023-01-11T11:29:57.309Z,100451.66
2023-01-11T11:32:28.816Z,100456.31
2023-01-11T11:34:58.236Z,100457.13
2023-01-11T11:37:29.549Z,100449.53
2023-01-11T11:39:57.903Z,100459.19
2023-01-11T11:42:26.353Z,100465.50
2023-01-11T11:45:17.599Z,100461.75
2023-01-11T11:48:01.895Z,100465.81
2023-01-11T11:50:44.314Z,100464.34
2023-01-11T11:53:23.634Z,100457.03
2023-01-11T11:55:52.408Z,100472.59
2023-01-11T11:58:23.203Z,100475.63
2023-01-11T12:00:52.945Z,100469.28
2023-01-11T12:03:26.274Z,100472.09
2023-01-11T12:06:00.669Z,100465.94
2023-01-11T12:08:30.822Z,100467.72
2023-01-11T12:11:00.791Z,100471.19
2023-01-11T12:13:32.242Z,100469.09
2023-01-11T12:16:01.994Z,100468.47
2023-01-11T12:18:33.297Z,100465.81
2023-01-11T12:21:21.790Z,100474.97
2023-01-11T12:23:49.720Z,100479.63
2023-01-11T12:26:23.523Z,100479.16
2023-01-11T12:29:38.845Z,100477.91
2023-01-11T12:32:19.272Z,100478.28
2023-01-11T12:35:10.635Z,100480.66
2023-01-11T12:37:55.919Z,100486.19
2023-01-11T12:40:32.862Z,100488.84
2023-01-11T12:43:20.978Z,100496.59
2023-01-11T12:45:54.252Z,100492.13
2023-01-11T12:48:35.807Z,100493.13
2023-01-11T12:51:18.092Z,100493.94
2023-01-11T12:53:57.986Z,100486.44
2023-01-11T12:56:47.783Z,100489.53
2023-01-11T12:59:28.733Z,100477.47
2023-01-11T13:02:05.255Z,100484.59
2023-01-11T13:04:49.024Z,100481.75
2023-01-11T13:07:29.700Z,100487.50
2023-01-11T13:10:11.058Z,100487.72
2023-01-11T13:12:45.905Z,100491.63
2023-01-11T13:15:27.243Z,100500.69
2023-01-11T13:18:02.068Z,100513.69
2023-01-11T13:20:58.620Z,100510.94
2023-01-11T13:23:34.315Z,100515.13
2023-01-11T13:26:14.126Z,100513.53
2023-01-11T13:28:44.397Z,100507.66
2023-01-11T13:31:14.644Z,100510.13
2023-01-11T13:33:48.171Z,100515.63
2023-01-11T13:36:23.782Z,100505.00
2023-01-11T13:38:58.243Z,100515.75
2023-01-11T13:41:33.105Z,100507.31
2023-01-11T13:44:06.560Z,100519.16
2023-01-11T13:46:50.050Z,100520.38
2023-01-11T13:49:29.210Z,100517.47
2023-01-11T13:52:01.115Z,100513.69
2023-01-11T13:54:40.226Z,100511.22
2023-01-11T13:57:16.360Z,100517.09
2023-01-11T13:59:47.183Z,100533.75
2023-01-11T14:02:22.892Z,100525.72
2023-01-11T14:04:55.334Z,100534.22
2023-01-11T14:07:35.077Z,100535.19
2023-01-11T14:10:24.561Z,100544.72
2023-01-11T14:13:12.381Z,100546.91
2023-01-11T14:15:44.245Z,100546.97
2023-01-11T14:18:23.553Z,100555.97
2023-01-11T14:21:01.442Z,100552.22
2023-01-11T14:23:41.021Z,100557.44
2023-01-11T14:26:34.965Z,100564.31
2023-01-11T14:29:19.974Z,100565.84
2023-01-11T14:32:18.492Z,100567.22
2023-01-11T14:35:09.221Z,100566.13
2023-01-11T14:38:05.788Z,100562.34
2023-01-11T14:40:49.997Z,100570.00
2023-01-11T14:43:46.770Z,100571.56
2023-01-11T14:46:46.397Z,100566.97
2023-01-11T14:49:27.634Z,100577.94
2023-01-11T14:51:59.699Z,100566.41
2023-01-11T14:54:30.014Z,100567.78
2023-01-11T14:56:58.553Z,100565.84
2023-01-11T14:59:34.141Z,100554.94
2023-01-11T15:02:27.709Z,100568.91
2023-01-11T15:05:07.189Z,100565.59
2023-01-11T15:07:37.590Z,100572.28
2023-01-11T15:10:26.565Z,100569.31
2023-01-11T15:12:57.540Z,100573.97
2023-01-11T15:15:50.357Z,100576.97
2023-01-11T15:18:22.795Z,100576.34
2023-01-11T15:20:55.211Z,100567.72
2023-01-11T15:23:23.456Z,100574.19
2023-01-11T15:26:01.064Z,100573.38
2023-01-11T15:28:48.951Z,100573.72
2023-01-11T15:31:33.273Z,100569.78
2023-01-11T15:34:17.881Z,100574.41
2023-01-11T15:37:11.524Z,100579.28
2023-01-11T15:39:45.129Z,100587.56
2023-01-11T15:42:35.695Z,100573.66
2023-01-11T15:45:26.347Z,100589.09
2023-01-11T15:48:18.382Z,100584.16
2023-01-11T15:51:03.287Z,100575.38
2023-01-11T15:54:05.777Z,100580.66
2023-01-11T15:57:07.097Z,100572.88
2023-01-11T16:00:01.674Z,100572.88
2023-01-11T16:02:56.631Z,100580.19
2023-01-11T16:05:28.650Z,100580.19
2023-01-11T16:08:04.708Z,100583.81
2023-01-11T16:10:58.049Z,100597.06
2023-01-11T16:13:38.512Z,100593.59
2023-01-11T16:16:17.280Z,100584.84
2023-01-11T16:18:48.089Z,100585.00
2023-01-11T16:21:21.282Z,100590.50
2023-01-11T16:23:50.682Z,100593.78
2023-01-11T16:26:20.581Z,100589.47
2023-01-11T16:28:50.210Z,100582.34
2023-01-11T16:31:17.838Z,100584.16
2023-01-11T16:33:49.507Z,100588.00
2023-01-11T16:36:20.999Z,100577.59
2023-01-11T16:39:01.731Z,100566.31
2023-01-11T16:41:34.535Z,100574.44
2023-01-11T16:44:07.131Z,100570.97
2023-01-11T16:47:16.836Z,100569.66
2023-01-11T16:49:49.000Z,100558.91
2023-01-11T16:52:37.587Z,100558.91
2023-01-11T16:55:16.388Z,100561.72
2023-01-11T16:57:48.219Z,100569.19
2023-01-11T17:00:29.052Z,100567.53
2023-01-11T17:03:18.695Z,100562.25
2023-01-11T17:05:57.525Z,100568.88
2023-01-11T17:08:31.011Z,100564.94
2023-01-11T17:11:03.794Z,100554.69
2023-01-11T17:13:54.475Z,100570.75
2023-01-11T17:16:25.620Z,100580.69
2023-01-11T17:18:54.395Z,100570.25
2023-01-11T17:21:25.645Z,100573.91
2023-01-11T17:23:56.000Z,100576.72
2023-01-11T17:26:28.968Z,100580.69
2023-01-11T17:28:59.742Z,100585.34
2023-01-11T17:31:30.836Z,100594.47
2023-01-11T17:34:04.631Z,100579.56
2023-01-11T17:36:33.544Z,100589.50
2023-01-11T17:39:01.714Z,100574.81
2023-01-11T17:41:49.610Z,100574.13
2023-01-11T17:44:36.878Z,100586.72
2023-01-11T17:47:07.754Z,100581.75
2023-01-11T17:49:36.999Z,100580.94
2023-01-11T17:52:17.541Z,100583.91
2023-01-11T17:54:45.293Z,100585.88
2023-01-11T17:57:14.839Z,100589.38
2023-01-11T17:59:42.547Z,100590.19
2023-01-11T18:02:14.125Z,100589.69
2023-01-11T18:04:42.237Z,100581.41
2023-01-11T18:07:16.395Z,100592.66
2023-01-11T18:09:46.881Z,100582.75
2023-01-11T18:12:19.047Z,100598.44
2023-01-11T18:14:52.971Z,100591.97
2023-01-11T18:17:36.089Z,100586.00
2023-01-11T18:20:25.803Z,100593.44
2023-01-11T18:23:04.493Z,100595.09
2023-01-11T18:25:34.743Z,100590.16
2023-01-11T18:28:30.743Z,100586.81
2023-01-11T18:31:01.812Z,100587.34
2023-01-11T18:33:32.134Z,100593.63
2023-01-11T18:36:01.655Z,100598.94
2023-01-11T18:38:32.445Z,100601.41
2023-01-11T18:41:24.943Z,100603.53
2023-01-11T18:43:53.238Z,100596.91
2023-01-11T18:46:21.136Z,100604.19
2023-01-11T18:48:48.730Z,100603.66
2023-01-11T18:51:18.997Z,100604.13
2023-01-11T18:53:48.079Z,100600.97
2023-01-11T18:56:16.348Z,100596.97
2023-01-11T18:58:44.042Z,100601.94
2023-01-11T19:01:11.938Z,100598.44
2023-01-11T19:03:39.639Z,100587.69
2023-01-11T19:06:11.940Z,100577.09
2023-01-11T19:08:39.597Z,100576.09
2023-01-11T19:11:08.836Z,100576.28
2023-01-11T19:13:36.605Z,100571.97
2023-01-11T19:16:04.352Z,100570.97
2023-01-11T19:18:35.254Z,100566.19
2023-01-11T19:21:03.489Z,100573.50
2023-01-11T19:23:31.049Z,100571.19
2023-01-11T19:25:59.643Z,100566.22
2023-01-11T19:28:28.982Z,100562.94
2023-01-11T19:30:57.022Z,100567.75
2023-01-11T19:33:24.899Z,100561.63
2023-01-11T19:35:53.259Z,100558.97
2023-01-11T19:38:21.199Z,100551.88
2023-01-11T19:40:50.419Z,100540.44
2023-01-11T19:43:18.472Z,100547.56
2023-01-11T19:45:56.043Z,100547.56
2023-01-11T19:48:23.687Z,100537.63
2023-01-11T19:50:51.323Z,100527.03
2023-01-11T19:53:18.923Z,100530.88
2023-01-11T19:55:46.494Z,100527.56
2023-01-11T19:58:14.100Z,100532.69
2023-01-11T20:00:41.771Z,100539.25
2023-01-11T20:03:10.692Z,100531.81
2023-01-11T20:05:38.283Z,100536.13
2023-01-11T20:08:06.028Z,100531.94
2023-01-11T20:10:33.616Z,100528.13
2023-01-11T20:13:01.211Z,100516.34
2023-01-11T20:15:28.770Z,100511.72
2023-01-11T20:17:56.383Z,100519.31
2023-01-11T20:20:25.342Z,100507.69
2023-01-11T20:22:52.930Z,100496.59
2023-01-11T20:25:20.479Z,100478.22
2023-01-11T20:27:48.077Z,100484.34
2023-01-11T20:30:16.051Z,100469.28
2023-01-11T20:32:43.710Z,100472.56
2023-01-11T20:35:11.690Z,100468.09
2023-01-11T20:37:40.685Z,100465.63
2023-01-11T20:40:11.448Z,100460.50
2023-01-11T20:42:40.058Z,100458.19
2023-01-11T20:45:08.886Z,100460.03
2023-01-11T20:47:36.768Z,100456.91
2023-01-11T20:50:04.992Z,100449.50
2023-01-11T20:52:32.614Z,100453.31
2023-01-11T20:55:01.556Z,100453.84
2023-01-11T20:57:29.575Z,100440.78
2023-01-11T20:59:57.549Z,100447.75
2023-01-11T21:02:25.204Z,100431.84
2023-01-11T21:04:52.779Z,100433.31
2023-01-11T21:07:20.384Z,100427.00
2023-01-11T21:09:47.948Z,100409.13
2023-01-11T21:12:18.377Z,100412.91
2023-01-11T21:14:45.989Z,100408.22
2023-01-11T21:17:13.554Z,100399.94
2023-01-11T21:19:41.158Z,100398.94
2023-01-11T21:22:08.766Z,100399.78
2023-01-11T21:24:38.524Z,100389.97
2023-01-11T21:27:06.221Z,100387.31
2023-01-11T21:29:35.494Z,100383.22
2023-01-11T21:32:03.093Z,100373.44
2023-01-11T21:34:30.726Z,100371.78
2023-01-11T21:36:58.264Z,100363.22
2023-01-11T21:39:26.623Z,100374.91
2023-01-11T21:41:58.550Z,100367.63
2023-01-11T21:44:32.090Z,100364.63
2023-01-11T21:47:01.340Z,100358.97
2023-01-11T21:49:29.733Z,100353.31
2023-01-11T21:51:57.793Z,100340.69
2023-01-11T21:54:25.448Z,100328.75
2023-01-11T21:56:53.067Z,100309.38
2023-01-11T21:59:21.390Z,100319.78
2023-01-11T22:01:49.758Z,100317.94
2023-01-11T22:04:21.804Z,100322.41
2023-01-11T22:06:54.128Z,100316.13
2023-01-11T22:09:22.734Z,100317.13
2023-01-11T22:11:50.993Z,100300.41
2023-01-11T22:14:18.837Z,100302.06
2023-01-11T22:16:46.460Z,100298.22
2023-01-11T22:19:14.633Z,100306.16
2023-01-11T22:21:43.853Z,100298.03
2023-01-11T22:24:13.021Z,100296.38
2023-01-11T22:26:41.046Z,100284.78
2023-01-11T22:29:19.908Z,100276.84
2023-01-11T22:31:50.872Z,100284.13
2023-01-11T22:34:19.292Z,100268.25
2023-01-11T22:36:48.936Z,100266.41
2023-01-11T22:39:19.250Z,100261.31
2023-01-11T22:41:47.744Z,100260.47
2023-01-11T22:44:15.682Z,100256.00
2023-01-11T22:46:43.705Z,100258.47
2023-01-11T22:49:11.876Z,100248.88
2023-01-11T22:51:40.424Z,100245.22
2023-01-11T22:54:10.172Z,100246.03
2023-01-11T22:56:37.836Z,100234.25
2023-01-11T22:59:05.553Z,100238.56
2023-01-11T23:01:34.584Z,100242.19
2023-01-11T23:04:02.881Z,100245.84
2023-01-11T23:06:32.359Z,100245.84
2023-01-11T23:09:00.517Z,100239.75
2023-01-11T23:11:48.989Z,100247.03
2023-01-11T23:14:18.795Z,100220.28
2023-01-11T23:16:47.428Z,100233.38
2023-01-11T23:19:17.014Z,100211.34
2023-01-11T23:21:45.848Z,100211.78
2023-01-11T23:24:15.602Z,100200.19
2023-01-11T23:26:45.265Z,100202.66
2023-01-11T23:29:13.395Z,100194.13
2023-01-11T23:31:41.031Z,100194.59
2023-01-11T23:34:08.863Z,100195.69
2023-01-11T23:36:39.009Z,100194.47
2023-01-11T23:39:08.152Z,100194.47
2023-01-11T23:41:53.522Z,100196.59
2023-01-11T23:44:23.275Z,100204.34
2023-01-11T23:47:09.048Z,100204.34
2023-01-11T23:49:36.896Z,100212.50
2023-01-11T23:52:05.135Z,100199.63
2023-01-11T23:54:34.589Z,100202.88
2023-01-11T23:57:03.681Z,100213.50
2023-01-11T23:59:32.986Z,100214.84
